Flight Track Log - Related Links

Times and Time Zones

All times are in EDT time to prevent confusion due to time zone crossing. See the N508QS flight status page for this flight to view local times or setup timezone preferences in your user account.

Time Position Orientation Groundspeed Altitude Reporting Facility
EDT Latitude Longitude Course Direction KTS MPH feet Rate Location/Type
Thu 01:10:56 PM 41.1500 -72.8167 143° Southeast 256 295 5,000  Level New York TRACON
Thu 01:11:56 PM 41.0833 -72.7833 159° South 259 298 5,000 939 Level New York TRACON
Thu 01:12:51 PM 41.0167 -72.7333 150° Southeast 257 296 6,800 1,840 Climbing New York TRACON
Thu 01:14:39 PM 40.8975 -72.6542 153° Southeast 277 319 10,000 1,852 Climbing Boston Center
Thu 01:16:41 PM 40.7231 -72.5814 162° South 344 396 13,900 1,978 Climbing New York Center
Thu 01:17:41 PM 40.6322 -72.6581 213° Southwest 322 371 16,000 1,050 Climbing New York Center
Thu 01:18:41 PM 40.5556 -72.7569 224° Southwest 354 407 16,000 50 Level New York Center
Thu 01:19:40 PM 40.4811 -72.8503 224° Southwest 370 426 16,100 50 Climbing New York Center
Thu 01:20:41 PM 40.4128 -72.9328 223° Southwest 377 434 16,100  Level New York Center
Thu 01:21:39 PM 40.3297 -73.0364 224° Southwest 377 434 16,100  Level New York Center
Thu 01:22:39 PM 40.2550 -73.1261 223° Southwest 377 434 16,100  Level New York Center
Thu 01:23:40 PM 40.1928 -73.2083 225° Southwest 342 394 16,100 -1,672 Level New York Center
Thu 01:24:41 PM 40.1369 -73.2906 228° Southwest 308 354 12,700 -3,227 Descending New York Center
Thu 01:25:39 PM 40.0767 -73.3778 228° Southwest 313 360 9,700 -1,983 Descending New York Center
Thu 01:26:39 PM 40.0269 -73.4492 228° Southwest 297 342 8,800 -1,328 Descending New York Center
Thu 01:27:41 PM 39.9817 -73.5206 230° Southwest 273 314 7,000 -900 Descending New York Center
Thu 01:28:39 PM 39.9383 -73.5864 229° Southwest 263 303 7,000 -150 Level New York Center
Thu 01:29:41 PM 39.9464 -73.6817 276° West 238 274 6,700 -1,033 Descending New York Center
Thu 01:30:41 PM 39.9733 -73.7694 292° West 238 274 4,900 -1,322 Descending New York Center
Thu 01:31:39 PM 40.0025 -73.8547 294° West 248 285 4,100 -407 Descending New York Center
Thu 01:32:39 PM 40.0256 -73.9317 291° West 253 291 4,100  Level New York Center
Thu 01:33:40 PM 40.0522 -74.0169 292° West 253 291 4,100  Level New York Center
Thu 01:34:40 PM 40.0831 -74.1106 293° West 253 291 4,100 -50 Level New York Center
Thu 01:35:41 PM 40.1097 -74.1986 48° Northeast 253 291 4,000 -50 Descending New York Center
Thu 01:36:00 PM 40.1180 -74.2370 294° West  Level FlightAware Approximate
Thu 01:36:41 PM 40.1364 -74.2814 293° West 253 291 4,000  Level New York Center
Thu 01:37:39 PM 40.1889 -74.3358 322° Northwest 259 298 4,000  Level New York Center
Thu 01:39:41 PM 40.3339 -74.4331 333° Northwest 279 321 4,000 42 Level New York Center
Thu 01:40:03 PM 40.3667 -74.4500 339° North 290 334 4,100 -659 Climbing New York TRACON
Thu 01:41:03 PM 40.4333 -74.4667 349° North 278 320 3,100 -500 Descending New York TRACON
Thu 01:42:03 PM 40.5167 -74.4833 351° North 284 327 3,100  Level New York TRACON
Thu 01:43:00 PM 40.4660 -74.5956 48° Northeast  Level FlightAware Approximate
Thu 01:43:03 PM 40.6000 -74.4833 360° North 287 330 3,100  Level New York TRACON
Thu 01:44:03 PM 40.6667 -74.4333 30° Northeast 290 334 3,100  Level New York TRACON
Thu 01:45:03 PM 40.7500 -74.3833 24° Northeast 297 342 3,100  Level New York TRACON
Thu 01:46:03 PM 40.8167 -74.3333 30° Northeast 276 318 3,100  Level New York TRACON
Thu 01:47:03 PM 40.8667 -74.3000 27° Northeast 254 292 3,100  Level New York TRACON
Thu 01:48:03 PM 40.9333 -74.2500 30° Northeast 239 275 3,100  Level New York TRACON
Thu 01:49:03 PM 40.9833 -74.2000 37° Northeast 214 246 3,100 -350 Level New York TRACON
Thu 01:50:03 PM 41.0167 -74.1500 49° Northeast 211 243 2,400 -500 Descending New York TRACON
Thu 01:51:03 PM 41.0333 -74.0833 72° East 207 238 2,100 -150 Descending New York TRACON
Thu 01:52:03 PM 40.9833 -74.0667 166° South 170 196 2,100 -200 Level New York TRACON
Thu 01:53:03 PM 40.9333 -74.0500 166° South 161 185 1,700 -600 Descending New York TRACON
Thu 01:54:03 PM 40.9000 -74.0500 180° South 152 175 900 -573 Descending New York TRACON
Thu 01:55:40 PM 40.8325 -74.0650 190° South 143 165 200 1,177 Descending New York Center
Thu 01:56:41 PM 40.7906 -74.0683 183° South 143 165 4,000 3,738 Climbing New York Center
Thu 01:58:00 PM 40.8500 -74.0500 45° Northeast  Level FlightAware Approximate

Login

Don't have an account? Register now (free) for customized features, flight alerts, and more!